Time,TemperatureF,DewpointF,PressureIn,WindDirection,WindDirectionDegrees,WindSpeedMPH,WindSpeedGustMPH,Humidity,HourlyPrecipIn,Conditions,Clouds,dailyrainin,SoftwareType,DateUTC
2013-01-23 00:02:00,43.0,40.0,30.30,SW,215,0.0,0.0,89,0.00,,,0.00,,2013-01-23 06:02:00,
2013-01-23 00:12:00,43.0,40.0,30.30,SW,215,0.0,0.0,89,0.00,,,0.00,,2013-01-23 06:12:00,
2013-01-23 00:22:00,43.0,40.0,30.30,SW,215,0.0,0.0,89,0.00,,,0.00,,2013-01-23 06:22:00,
2013-01-23 00:32:00,43.0,40.0,30.30,SW,215,0.0,0.0,88,0.00,,,0.00,,2013-01-23 06:32:00,
2013-01-23 00:42:00,43.0,40.0,30.30,SW,215,0.0,0.0,88,0.00,,,0.00,,2013-01-23 06:42:00,
2013-01-23 00:53:00,42.0,39.0,30.30,SW,215,0.0,0.0,88,0.00,,,0.00,,2013-01-23 06:53:00,
2013-01-23 01:02:00,42.0,39.0,30.30,SW,215,0.0,0.0,89,0.00,,,0.00,,2013-01-23 07:02:00,
2013-01-23 01:12:00,42.0,39.0,30.30,SW,215,0.0,0.0,89,0.00,,,0.00,,2013-01-23 07:12:00,
2013-01-23 01:22:00,42.0,39.0,30.30,SW,215,0.0,0.0,89,0.00,,,0.00,,2013-01-23 07:22:00,
2013-01-23 01:33:00,41.0,38.0,30.30,SW,214,0.0,0.0,89,0.00,,,0.00,,2013-01-23 07:33:00,
2013-01-23 01:42:00,41.0,38.0,30.30,SW,214,0.0,0.0,89,0.00,,,0.00,,2013-01-23 07:42:00,
2013-01-23 01:53:00,41.0,38.0,30.30,SW,215,0.0,0.0,89,0.00,,,0.00,,2013-01-23 07:53:00,
2013-01-23 02:02:00,41.0,38.0,30.30,SW,215,0.0,0.0,89,0.00,,,0.00,,2013-01-23 08:02:00,
2013-01-23 02:12:00,41.0,38.0,30.30,SW,215,0.0,0.0,89,0.00,,,0.00,,2013-01-23 08:12:00,
2013-01-23 02:22:00,41.0,38.0,30.31,SW,215,0.0,0.0,88,0.00,,,0.00,,2013-01-23 08:22:00,
2013-01-23 02:33:00,41.0,38.0,30.31,SW,215,0.0,0.0,88,0.00,,,0.00,,2013-01-23 08:33:00,
2013-01-23 02:42:00,41.0,38.0,30.31,SW,215,0.0,0.0,88,0.00,,,0.00,,2013-01-23 08:42:00,
2013-01-23 02:53:00,42.0,39.0,30.31,SW,215,0.0,0.0,88,0.00,,,0.00,,2013-01-23 08:53:00,
2013-01-23 03:02:00,42.0,38.0,30.31,SW,215,0.0,0.0,87,0.00,,,0.00,,2013-01-23 09:02:00,
2013-01-23 03:12:00,42.0,38.0,30.31,SW,215,0.0,0.0,87,0.00,,,0.00,,2013-01-23 09:12:00,
2013-01-23 03:22:00,42.0,38.0,30.31,SW,215,0.0,0.0,87,0.00,,,0.00,,2013-01-23 09:22:00,
2013-01-23 03:32:00,43.0,39.0,30.30,SW,215,0.0,0.0,87,0.00,,,0.00,,2013-01-23 09:32:00,
2013-01-23 03:43:00,43.0,39.0,30.30,SW,215,0.0,0.0,87,0.00,,,0.00,,2013-01-23 09:43:00,
2013-01-23 03:53:00,43.0,39.0,30.30,SW,215,0.0,0.0,87,0.00,,,0.00,,2013-01-23 09:53:00,
2013-01-23 04:02:00,43.0,39.0,30.30,SW,215,0.0,0.0,87,0.00,,,0.00,,2013-01-23 10:02:00,
2013-01-23 04:12:00,43.0,39.0,30.30,SW,215,0.0,0.0,87,0.00,,,0.00,,2013-01-23 10:12:00,
2013-01-23 04:23:00,43.0,39.0,30.30,SW,215,0.0,0.0,87,0.00,,,0.00,,2013-01-23 10:23:00,
2013-01-23 04:32:00,43.0,39.0,30.30,SW,215,0.0,0.0,87,0.00,,,0.00,,2013-01-23 10:32:00,
2013-01-23 04:42:00,43.0,39.0,30.30,SW,215,0.0,0.0,87,0.00,,,0.00,,2013-01-23 10:42:00,
2013-01-23 04:53:00,43.0,39.0,30.30,SW,215,0.0,0.0,87,0.00,,,0.00,,2013-01-23 10:53:00,
2013-01-23 05:02:00,43.0,39.0,30.30,SW,215,0.0,0.0,87,0.00,,,0.00,,2013-01-23 11:02:00,
2013-01-23 05:12:00,43.0,39.0,30.30,SW,215,0.0,0.0,87,0.00,,,0.00,,2013-01-23 11:12:00,
2013-01-23 05:23:00,43.0,39.0,30.30,SW,215,0.0,0.0,87,0.00,,,0.00,,2013-01-23 11:23:00,
2013-01-23 05:33:00,43.0,39.0,30.31,SW,215,0.0,0.0,87,0.00,,,0.00,,2013-01-23 11:33:00,
2013-01-23 05:43:00,43.0,39.0,30.31,SW,215,0.0,0.0,87,0.00,,,0.00,,2013-01-23 11:43:00,
2013-01-23 05:53:00,43.0,40.0,30.31,SW,215,0.0,0.0,88,0.00,,,0.00,,2013-01-23 11:53:00,
2013-01-23 06:03:00,42.0,38.0,30.31,SW,215,0.0,0.0,87,0.00,,,0.00,,2013-01-23 12:03:00,
2013-01-23 06:12:00,42.0,38.0,30.31,SW,215,0.0,0.0,87,0.00,,,0.00,,2013-01-23 12:12:00,
2013-01-23 06:22:00,43.0,39.0,30.31,SW,215,0.0,0.0,87,0.00,,,0.00,,2013-01-23 12:22:00,
2013-01-23 06:33:00,42.0,39.0,30.31,SW,215,0.0,0.0,88,0.00,,,0.00,,2013-01-23 12:33:00,
2013-01-23 06:43:00,42.0,39.0,30.31,SW,215,0.0,0.0,88,0.00,,,0.00,,2013-01-23 12:43:00,
2013-01-23 06:53:00,42.0,39.0,30.32,SW,215,0.0,0.0,88,0.00,,,0.00,,2013-01-23 12:53:00,
2013-01-23 07:03:00,42.0,38.0,30.32,SW,215,0.0,0.0,87,0.00,,,0.00,,2013-01-23 13:03:00,
2013-01-23 07:13:00,42.0,38.0,30.32,SW,215,0.0,0.0,87,0.00,,,0.00,,2013-01-23 13:13:00,
2013-01-23 07:23:00,42.0,40.0,30.33,SW,215,0.0,0.0,92,0.00,,,0.00,,2013-01-23 13:23:00,
2013-01-23 07:33:00,42.0,38.0,30.34,SW,215,0.0,0.0,87,0.01,,,0.01,,2013-01-23 13:33:00,
2013-01-23 07:42:00,42.0,38.0,30.34,SW,215,0.0,0.0,87,0.01,,,0.01,,2013-01-23 13:42:00,
2013-01-23 07:53:00,43.0,41.0,30.34,SW,215,0.0,0.0,92,0.01,,,0.01,,2013-01-23 13:53:00,
2013-01-23 08:02:00,43.0,39.0,30.34,SW,215,0.0,0.0,87,0.01,,,0.01,,2013-01-23 14:02:00,
2013-01-23 08:12:00,43.0,39.0,30.34,SW,215,0.0,0.0,87,0.01,,,0.01,,2013-01-23 14:12:00,
2013-01-23 08:23:00,45.0,42.0,30.35,South,188,0.0,0.0,88,0.01,,,0.01,,2013-01-23 14:23:00,
2013-01-23 08:33:00,46.0,43.0,30.35,South,188,0.0,0.0,88,0.00,,,0.01,,2013-01-23 14:33:00,
2013-01-23 08:43:00,46.0,43.0,30.35,South,188,0.0,0.0,88,0.00,,,0.01,,2013-01-23 14:43:00,
2013-01-23 08:53:00,48.0,45.0,30.35,South,188,0.0,0.0,88,0.00,,,0.01,,2013-01-23 14:53:00,
2013-01-23 09:03:00,50.0,47.0,30.35,SE,124,0.0,0.0,89,0.00,,,0.01,,2013-01-23 15:03:00,
2013-01-23 09:12:00,50.0,47.0,30.35,SE,124,0.0,0.0,89,0.00,,,0.01,,2013-01-23 15:12:00,
2013-01-23 09:23:00,53.0,50.0,30.36,SE,127,0.0,3.0,90,0.00,,,0.01,,2013-01-23 15:23:00,
2013-01-23 09:33:00,55.0,52.0,30.36,SE,127,0.0,4.0,90,0.00,,,0.01,,2013-01-23 15:33:00,
2013-01-23 09:43:00,55.0,52.0,30.36,SE,127,0.0,4.0,90,0.00,,,0.01,,2013-01-23 15:43:00,
2013-01-23 09:53:00,58.0,54.0,30.36,SE,146,0.0,5.0,88,0.00,,,0.01,,2013-01-23 15:53:00,
2013-01-23 10:03:00,61.0,58.0,30.36,SSE,163,4.0,7.0,89,0.00,,,0.01,,2013-01-23 16:03:00,
2013-01-23 10:12:00,61.0,58.0,30.36,SSE,163,4.0,7.0,89,0.00,,,0.01,,2013-01-23 16:12:00,
2013-01-23 10:23:00,64.0,60.0,30.37,SSE,157,3.0,6.0,86,0.00,,,0.01,,2013-01-23 16:23:00,
2013-01-23 10:32:00,65.0,60.0,30.36,SSE,166,3.0,8.0,83,0.00,,,0.01,,2013-01-23 16:32:00,
2013-01-23 10:42:00,65.0,60.0,30.36,SSE,166,3.0,8.0,83,0.00,,,0.01,,2013-01-23 16:42:00,
2013-01-23 10:53:00,67.0,61.0,30.36,SSE,166,4.0,9.0,81,0.00,,,0.01,,2013-01-23 16:53:00,
2013-01-23 11:03:00,68.0,61.0,30.35,SSW,194,3.0,7.0,77,0.00,,,0.01,,2013-01-23 17:03:00,
2013-01-23 11:12:00,68.0,61.0,30.35,SSW,194,3.0,7.0,77,0.00,,,0.01,,2013-01-23 17:12:00,
2013-01-23 11:23:00,69.0,61.0,30.35,SSE,167,5.0,8.0,75,0.00,,,0.01,,2013-01-23 17:23:00,
2013-01-23 11:33:00,70.0,61.0,30.35,SSW,200,7.0,12.0,72,0.00,,,0.01,,2013-01-23 17:33:00,
2013-01-23 11:42:00,70.0,61.0,30.35,SSW,200,7.0,12.0,72,0.00,,,0.01,,2013-01-23 17:42:00,
2013-01-23 11:53:00,71.0,61.0,30.34,SW,218,4.0,9.0,71,0.00,,,0.01,,2013-01-23 17:53:00,
2013-01-23 12:03:00,72.0,61.0,30.34,South,186,7.0,11.0,68,0.00,,,0.01,,2013-01-23 18:03:00,
2013-01-23 12:12:00,72.0,61.0,30.34,South,186,7.0,11.0,68,0.00,,,0.01,,2013-01-23 18:12:00,
2013-01-23 12:23:00,71.0,59.0,30.33,SW,222,7.0,13.0,66,0.00,,,0.01,,2013-01-23 18:23:00,
2013-01-23 12:33:00,71.0,59.0,30.33,SW,222,7.0,13.0,66,0.00,,,0.01,,2013-01-23 18:33:00,
2013-01-23 12:43:00,72.0,60.0,30.32,SSW,205,4.0,11.0,65,0.00,,,0.01,,2013-01-23 18:43:00,
2013-01-23 12:53:00,72.0,59.0,30.31,SSW,198,6.0,11.0,64,0.00,,,0.01,,2013-01-23 18:53:00,
2013-01-23 13:03:00,73.0,60.0,30.30,SSW,192,6.0,9.0,64,0.00,,,0.01,,2013-01-23 19:03:00,
2013-01-23 13:13:00,73.0,60.0,30.30,SSW,192,6.0,9.0,64,0.00,,,0.01,,2013-01-23 19:13:00,
2013-01-23 13:23:00,73.0,60.0,30.29,SSW,196,8.0,12.0,64,0.00,,,0.01,,2013-01-23 19:23:00,
2013-01-23 13:33:00,73.0,61.0,30.29,SSW,210,4.0,9.0,65,0.00,,,0.01,,2013-01-23 19:33:00,
2013-01-23 13:43:00,73.0,61.0,30.29,SSW,210,4.0,9.0,65,0.00,,,0.01,,2013-01-23 19:43:00,
2013-01-23 13:53:00,73.0,60.0,30.29,SSW,211,8.0,14.0,63,0.00,,,0.01,,2013-01-23 19:53:00,
2013-01-23 14:03:00,73.0,60.0,30.29,South,183,5.0,12.0,64,0.00,,,0.01,,2013-01-23 20:03:00,
2013-01-23 14:12:00,73.0,60.0,30.29,South,183,5.0,12.0,64,0.00,,,0.01,,2013-01-23 20:12:00,
2013-01-23 14:23:00,73.0,60.0,30.28,SE,146,5.0,10.0,64,0.00,,,0.01,,2013-01-23 20:23:00,
2013-01-23 14:33:00,73.0,60.0,30.28,SSW,197,2.0,11.0,64,0.00,,,0.01,,2013-01-23 20:33:00,
2013-01-23 14:42:00,73.0,60.0,30.28,SSW,197,2.0,11.0,64,0.00,,,0.01,,2013-01-23 20:42:00,
2013-01-23 14:53:00,73.0,60.0,30.27,South,175,7.0,13.0,64,0.00,,,0.01,,2013-01-23 20:53:00,
2013-01-23 15:03:00,73.0,61.0,30.27,SSW,195,6.0,11.0,65,0.00,,,0.01,,2013-01-23 21:03:00,
2013-01-23 15:12:00,73.0,61.0,30.27,SSW,195,6.0,11.0,65,0.00,,,0.01,,2013-01-23 21:12:00,
2013-01-23 15:23:00,73.0,61.0,30.27,SSE,163,6.0,12.0,65,0.00,,,0.01,,2013-01-23 21:23:00,
2013-01-23 15:33:00,73.0,60.0,30.27,South,187,8.0,13.0,64,0.00,,,0.01,,2013-01-23 21:33:00,
2013-01-23 15:42:00,73.0,60.0,30.27,South,187,8.0,13.0,64,0.00,,,0.01,,2013-01-23 21:42:00,
2013-01-23 15:53:00,73.0,61.0,30.27,South,182,5.0,9.0,66,0.00,,,0.01,,2013-01-23 21:53:00,
2013-01-23 16:02:00,72.0,60.0,30.27,South,182,5.0,12.0,67,0.00,,,0.01,,2013-01-23 22:02:00,
2013-01-23 16:12:00,72.0,60.0,30.27,South,182,5.0,12.0,67,0.00,,,0.01,,2013-01-23 22:12:00,
2013-01-23 16:23:00,72.0,61.0,30.27,SSW,211,6.0,11.0,68,0.00,,,0.01,,2013-01-23 22:23:00,
2013-01-23 16:33:00,71.0,60.0,30.27,South,186,7.0,12.0,69,0.00,,,0.01,,2013-01-23 22:33:00,
2013-01-23 16:42:00,71.0,60.0,30.27,South,186,7.0,12.0,69,0.00,,,0.01,,2013-01-23 22:42:00,
2013-01-23 16:53:00,70.0,60.0,30.27,South,181,5.0,12.0,70,0.00,,,0.01,,2013-01-23 22:53:00,
2013-01-23 17:03:00,70.0,60.0,30.27,South,178,5.0,10.0,70,0.00,,,0.01,,2013-01-23 23:03:00,
2013-01-23 17:12:00,70.0,60.0,30.27,South,178,5.0,10.0,70,0.00,,,0.01,,2013-01-23 23:12:00,
2013-01-23 17:23:00,69.0,60.0,30.27,SSW,194,5.0,8.0,72,0.00,,,0.01,,2013-01-23 23:23:00,
2013-01-23 17:33:00,69.0,60.0,30.27,SSW,201,3.0,8.0,73,0.00,,,0.01,,2013-01-23 23:33:00,
2013-01-23 17:42:00,69.0,60.0,30.27,SSW,201,3.0,8.0,73,0.00,,,0.01,,2013-01-23 23:42:00,
2013-01-23 17:53:00,68.0,60.0,30.27,SSW,193,3.0,7.0,75,0.00,,,0.01,,2013-01-23 23:53:00,
2013-01-23 18:03:00,66.0,59.0,30.27,SSW,192,2.0,4.0,77,0.00,,,0.01,,2013-01-24 00:03:00,
2013-01-23 18:12:00,66.0,59.0,30.27,SSW,192,2.0,4.0,77,0.00,,,0.01,,2013-01-24 00:12:00,
2013-01-23 18:22:00,66.0,59.0,30.27,SSW,194,1.0,7.0,79,0.00,,,0.01,,2013-01-24 00:22:00,
2013-01-23 18:32:00,65.0,58.0,30.26,SSW,195,0.0,3.0,79,0.00,,,0.01,,2013-01-24 00:32:00,
2013-01-23 18:42:00,65.0,58.0,30.26,SSW,195,0.0,3.0,79,0.00,,,0.01,,2013-01-24 00:42:00,
2013-01-23 18:53:00,64.0,58.0,30.26,SSW,195,0.0,3.0,82,0.00,,,0.01,,2013-01-24 00:53:00,
2013-01-23 19:03:00,62.0,56.0,30.26,SSW,195,0.0,0.0,82,0.00,,,0.01,,2013-01-24 01:03:00,
2013-01-23 19:12:00,62.0,56.0,30.26,SSW,195,0.0,0.0,82,0.00,,,0.01,,2013-01-24 01:12:00,
2013-01-23 19:23:00,61.0,57.0,30.25,SSW,195,0.0,1.0,86,0.00,,,0.01,,2013-01-24 01:23:00,
2013-01-23 19:33:00,61.0,56.0,30.26,SSW,195,0.0,3.0,85,0.00,,,0.01,,2013-01-24 01:33:00,
2013-01-23 19:42:00,61.0,56.0,30.26,SSW,195,0.0,3.0,85,0.00,,,0.01,,2013-01-24 01:42:00,
2013-01-23 19:52:00,60.0,55.0,30.25,SSW,195,0.0,0.0,85,0.00,,,0.01,,2013-01-24 01:52:00,
2013-01-23 20:02:00,60.0,56.0,30.25,SSW,195,0.0,0.0,87,0.00,,,0.01,,2013-01-24 02:02:00,
2013-01-23 20:12:00,60.0,56.0,30.25,SSW,195,0.0,0.0,87,0.00,,,0.01,,2013-01-24 02:12:00,
2013-01-23 20:22:00,59.0,55.0,30.25,SSW,195,0.0,0.0,88,0.00,,,0.01,,2013-01-24 02:22:00,
2013-01-23 20:33:00,59.0,55.0,30.25,SSW,195,0.0,0.0,88,0.00,,,0.01,,2013-01-24 02:33:00,
2013-01-23 20:42:00,59.0,55.0,30.25,SSW,195,0.0,0.0,88,0.00,,,0.01,,2013-01-24 02:42:00,
2013-01-23 20:52:00,59.0,55.0,30.25,SSW,195,0.0,0.0,88,0.00,,,0.01,,2013-01-24 02:52:00,
2013-01-23 21:02:00,57.0,53.0,30.25,SSW,195,0.0,0.0,88,0.00,,,0.01,,2013-01-24 03:02:00,
2013-01-23 21:12:00,57.0,53.0,30.25,SSW,195,0.0,0.0,88,0.00,,,0.01,,2013-01-24 03:12:00,
2013-01-23 21:22:00,57.0,53.0,30.25,SSW,195,0.0,0.0,88,0.00,,,0.01,,2013-01-24 03:22:00,
2013-01-23 21:33:00,57.0,54.0,30.26,SSW,195,0.0,0.0,89,0.00,,,0.01,,2013-01-24 03:33:00,
2013-01-23 21:43:00,57.0,54.0,30.26,SSW,195,0.0,0.0,89,0.00,,,0.01,,2013-01-24 03:43:00,
2013-01-23 21:53:00,56.0,53.0,30.26,SSW,195,0.0,0.0,89,0.00,,,0.01,,2013-01-24 03:53:00,
2013-01-23 22:02:00,55.0,52.0,30.26,SSW,195,0.0,0.0,89,0.00,,,0.01,,2013-01-24 04:02:00,
2013-01-23 22:12:00,55.0,52.0,30.26,SSW,195,0.0,0.0,89,0.00,,,0.01,,2013-01-24 04:12:00,
2013-01-23 22:22:00,54.0,51.0,30.26,SSW,195,0.0,0.0,89,0.00,,,0.01,,2013-01-24 04:22:00,
2013-01-23 22:32:00,54.0,51.0,30.26,SSW,195,0.0,0.0,89,0.00,,,0.01,,2013-01-24 04:32:00,
2013-01-23 22:42:00,54.0,51.0,30.26,SSW,195,0.0,0.0,89,0.00,,,0.01,,2013-01-24 04:42:00,
2013-01-23 22:53:00,53.0,50.0,30.26,SSW,195,0.0,0.0,89,0.00,,,0.01,,2013-01-24 04:53:00,
2013-01-23 23:03:00,53.0,50.0,30.26,SSW,195,0.0,0.0,89,0.00,,,0.01,,2013-01-24 05:03:00,
2013-01-23 23:12:00,53.0,50.0,30.26,SSW,195,0.0,0.0,89,0.00,,,0.01,,2013-01-24 05:12:00,
2013-01-23 23:22:00,52.0,49.0,30.26,SSW,195,0.0,0.0,89,0.00,,,0.01,,2013-01-24 05:22:00,
2013-01-23 23:33:00,51.0,48.0,30.26,SSW,195,0.0,0.0,89,0.00,,,0.01,,2013-01-24 05:33:00,
2013-01-23 23:42:00,51.0,48.0,30.26,SSW,195,0.0,0.0,89,0.00,,,0.01,,2013-01-24 05:42:00,
2013-01-23 23:53:00,51.0,48.0,30.26,SSW,195,0.0,0.0,89,0.00,,,0.01,,2013-01-24 05:53:00,